sensor_id;sensor_type;location;lat;lon;timestamp;P1;durP1;ratioP1;P2;durP2;ratioP2
18445;SDS011;9352;50.888;4.466;2022-07-29T00:00:45;7.75;;;2.00;;
18445;SDS011;9352;50.888;4.466;2022-07-29T00:03:13;1.80;;;1.70;;
18445;SDS011;9352;50.888;4.466;2022-07-29T00:05:40;5.25;;;1.98;;
18445;SDS011;9352;50.888;4.466;2022-07-29T00:08:07;3.33;;;1.70;;
18445;SDS011;9352;50.888;4.466;2022-07-29T00:10:34;4.70;;;2.05;;
18445;SDS011;9352;50.888;4.466;2022-07-29T00:13:03;4.10;;;1.70;;
18445;SDS011;9352;50.888;4.466;2022-07-29T00:15:30;3.38;;;1.83;;
18445;SDS011;9352;50.888;4.466;2022-07-29T00:17:57;2.58;;;1.70;;
18445;SDS011;9352;50.888;4.466;2022-07-29T00:20:23;4.20;;;2.00;;
18445;SDS011;9352;50.888;4.466;2022-07-29T00:22:50;2.45;;;1.92;;
18445;SDS011;9352;50.888;4.466;2022-07-29T00:25:18;5.85;;;1.92;;
18445;SDS011;9352;50.888;4.466;2022-07-29T00:27:45;4.65;;;1.65;;
18445;SDS011;9352;50.888;4.466;2022-07-29T00:30:14;6.45;;;1.90;;
18445;SDS011;9352;50.888;4.466;2022-07-29T00:32:41;8.45;;;2.15;;
18445;SDS011;9352;50.888;4.466;2022-07-29T00:35:08;5.88;;;1.90;;
18445;SDS011;9352;50.888;4.466;2022-07-29T00:37:52;4.93;;;1.92;;
18445;SDS011;9352;50.888;4.466;2022-07-29T00:40:20;2.83;;;1.50;;
18445;SDS011;9352;50.888;4.466;2022-07-29T00:42:50;4.78;;;1.90;;
18445;SDS011;9352;50.888;4.466;2022-07-29T00:45:19;7.03;;;1.73;;
18445;SDS011;9352;50.888;4.466;2022-07-29T00:47:47;7.90;;;2.03;;
18445;SDS011;9352;50.888;4.466;2022-07-29T00:50:14;2.85;;;1.92;;
18445;SDS011;9352;50.888;4.466;2022-07-29T00:52:42;2.47;;;1.73;;
18445;SDS011;9352;50.888;4.466;2022-07-29T00:55:10;5.32;;;2.10;;
18445;SDS011;9352;50.888;4.466;2022-07-29T00:57:38;5.32;;;1.92;;
18445;SDS011;9352;50.888;4.466;2022-07-29T01:00:07;3.88;;;1.70;;
18445;SDS011;9352;50.888;4.466;2022-07-29T01:02:37;3.95;;;1.90;;
18445;SDS011;9352;50.888;4.466;2022-07-29T01:05:04;5.00;;;2.13;;
18445;SDS011;9352;50.888;4.466;2022-07-29T01:07:32;4.28;;;1.80;;
18445;SDS011;9352;50.888;4.466;2022-07-29T01:10:01;4.15;;;2.15;;
18445;SDS011;9352;50.888;4.466;2022-07-29T01:12:29;5.95;;;1.98;;
18445;SDS011;9352;50.888;4.466;2022-07-29T01:14:59;3.85;;;2.13;;
18445;SDS011;9352;50.888;4.466;2022-07-29T01:17:28;4.10;;;2.05;;
18445;SDS011;9352;50.888;4.466;2022-07-29T01:20:03;5.85;;;2.10;;
18445;SDS011;9352;50.888;4.466;2022-07-29T01:22:40;2.25;;;1.60;;
18445;SDS011;9352;50.888;4.466;2022-07-29T01:31:07;2.22;;;1.73;;
18445;SDS011;9352;50.888;4.466;2022-07-29T01:33:38;6.68;;;2.20;;
18445;SDS011;9352;50.888;4.466;2022-07-29T01:36:16;2.10;;;1.90;;
18445;SDS011;9352;50.888;4.466;2022-07-29T01:38:50;2.58;;;1.77;;
18445;SDS011;9352;50.888;4.466;2022-07-29T01:41:20;2.25;;;2.00;;
18445;SDS011;9352;50.888;4.466;2022-07-29T01:43:51;3.60;;;1.90;;
18445;SDS011;9352;50.888;4.466;2022-07-29T01:46:24;3.70;;;1.83;;
18445;SDS011;9352;50.888;4.466;2022-07-29T01:48:57;2.42;;;1.80;;
18445;SDS011;9352;50.888;4.466;2022-07-29T01:51:29;3.65;;;1.95;;
18445;SDS011;9352;50.888;4.466;2022-07-29T01:54:01;4.50;;;1.98;;
18445;SDS011;9352;50.888;4.466;2022-07-29T01:56:32;4.38;;;1.88;;
18445;SDS011;9352;50.888;4.466;2022-07-29T01:59:04;14.13;;;2.13;;
18445;SDS011;9352;50.888;4.466;2022-07-29T02:01:34;4.35;;;2.00;;
18445;SDS011;9352;50.888;4.466;2022-07-29T02:04:02;3.83;;;2.10;;
18445;SDS011;9352;50.888;4.466;2022-07-29T02:06:31;4.25;;;1.70;;
18445;SDS011;9352;50.888;4.466;2022-07-29T02:09:01;5.47;;;2.17;;
18445;SDS011;9352;50.888;4.466;2022-07-29T02:11:29;2.42;;;1.80;;
18445;SDS011;9352;50.888;4.466;2022-07-29T02:13:57;7.30;;;2.40;;
18445;SDS011;9352;50.888;4.466;2022-07-29T02:16:28;4.63;;;1.63;;
18445;SDS011;9352;50.888;4.466;2022-07-29T02:18:56;10.35;;;2.00;;
18445;SDS011;9352;50.888;4.466;2022-07-29T02:21:26;2.28;;;1.90;;
18445;SDS011;9352;50.888;4.466;2022-07-29T02:23:55;7.03;;;1.77;;
18445;SDS011;9352;50.888;4.466;2022-07-29T02:26:26;5.13;;;1.80;;
18445;SDS011;9352;50.888;4.466;2022-07-29T02:28:56;2.90;;;1.85;;
18445;SDS011;9352;50.888;4.466;2022-07-29T02:31:25;9.65;;;2.17;;
18445;SDS011;9352;50.888;4.466;2022-07-29T02:33:58;4.30;;;1.90;;
18445;SDS011;9352;50.888;4.466;2022-07-29T02:36:27;5.80;;;2.00;;
18445;SDS011;9352;50.888;4.466;2022-07-29T02:38:57;9.48;;;2.00;;
18445;SDS011;9352;50.888;4.466;2022-07-29T02:41:27;6.10;;;2.13;;
18445;SDS011;9352;50.888;4.466;2022-07-29T02:43:58;3.63;;;1.85;;
18445;SDS011;9352;50.888;4.466;2022-07-29T02:46:32;4.55;;;1.92;;
18445;SDS011;9352;50.888;4.466;2022-07-29T02:49:02;4.63;;;2.13;;
18445;SDS011;9352;50.888;4.466;2022-07-29T02:51:39;10.02;;;1.90;;
18445;SDS011;9352;50.888;4.466;2022-07-29T02:54:09;5.05;;;1.90;;
18445;SDS011;9352;50.888;4.466;2022-07-29T02:56:40;3.55;;;1.95;;
18445;SDS011;9352;50.888;4.466;2022-07-29T02:59:10;4.25;;;1.98;;
18445;SDS011;9352;50.888;4.466;2022-07-29T03:01:41;4.45;;;2.00;;
18445;SDS011;9352;50.888;4.466;2022-07-29T03:04:09;8.95;;;2.20;;
18445;SDS011;9352;50.888;4.466;2022-07-29T03:06:39;2.30;;;2.10;;
18445;SDS011;9352;50.888;4.466;2022-07-29T03:09:10;2.80;;;1.95;;
18445;SDS011;9352;50.888;4.466;2022-07-29T03:11:37;3.42;;;2.05;;
18445;SDS011;9352;50.888;4.466;2022-07-29T03:14:05;4.40;;;2.22;;
18445;SDS011;9352;50.888;4.466;2022-07-29T03:16:33;2.95;;;2.20;;
18445;SDS011;9352;50.888;4.466;2022-07-29T03:19:03;7.68;;;2.33;;
18445;SDS011;9352;50.888;4.466;2022-07-29T03:21:31;4.55;;;2.10;;
18445;SDS011;9352;50.888;4.466;2022-07-29T03:23:58;4.97;;;2.10;;
18445;SDS011;9352;50.888;4.466;2022-07-29T03:26:25;4.80;;;1.90;;
18445;SDS011;9352;50.888;4.466;2022-07-29T03:28:52;3.28;;;2.15;;
18445;SDS011;9352;50.888;4.466;2022-07-29T03:31:19;5.03;;;2.47;;
18445;SDS011;9352;50.888;4.466;2022-07-29T03:33:46;3.38;;;1.98;;
18445;SDS011;9352;50.888;4.466;2022-07-29T03:36:14;7.70;;;2.25;;
18445;SDS011;9352;50.888;4.466;2022-07-29T03:38:41;4.30;;;2.20;;
18445;SDS011;9352;50.888;4.466;2022-07-29T03:41:10;7.45;;;2.55;;
18445;SDS011;9352;50.888;4.466;2022-07-29T03:43:39;2.20;;;2.00;;
18445;SDS011;9352;50.888;4.466;2022-07-29T03:46:08;8.27;;;2.30;;
18445;SDS011;9352;50.888;4.466;2022-07-29T03:48:39;8.93;;;1.92;;
18445;SDS011;9352;50.888;4.466;2022-07-29T03:51:12;4.35;;;1.95;;
18445;SDS011;9352;50.888;4.466;2022-07-29T03:53:41;3.25;;;2.03;;
18445;SDS011;9352;50.888;4.466;2022-07-29T03:56:08;6.53;;;2.42;;
18445;SDS011;9352;50.888;4.466;2022-07-29T03:58:41;6.63;;;2.10;;
18445;SDS011;9352;50.888;4.466;2022-07-29T04:01:09;4.25;;;2.20;;
18445;SDS011;9352;50.888;4.466;2022-07-29T04:03:37;2.30;;;2.10;;
18445;SDS011;9352;50.888;4.466;2022-07-29T04:06:06;4.20;;;2.80;;
18445;SDS011;9352;50.888;4.466;2022-07-29T04:08:34;12.57;;;2.60;;
18445;SDS011;9352;50.888;4.466;2022-07-29T04:11:01;8.95;;;2.22;;
18445;SDS011;9352;50.888;4.466;2022-07-29T04:13:29;6.60;;;2.45;;
18445;SDS011;9352;50.888;4.466;2022-07-29T04:15:56;4.72;;;2.47;;
18445;SDS011;9352;50.888;4.466;2022-07-29T04:18:23;4.57;;;2.15;;
18445;SDS011;9352;50.888;4.466;2022-07-29T04:20:50;4.45;;;2.35;;
18445;SDS011;9352;50.888;4.466;2022-07-29T04:23:17;3.42;;;2.25;;
18445;SDS011;9352;50.888;4.466;2022-07-29T04:25:45;5.78;;;2.40;;
18445;SDS011;9352;50.888;4.466;2022-07-29T04:28:12;3.90;;;2.50;;
18445;SDS011;9352;50.888;4.466;2022-07-29T04:30:39;3.67;;;2.55;;
18445;SDS011;9352;50.888;4.466;2022-07-29T04:33:07;4.03;;;2.70;;
18445;SDS011;9352;50.888;4.466;2022-07-29T04:35:34;6.78;;;2.58;;
18445;SDS011;9352;50.888;4.466;2022-07-29T04:38:02;5.22;;;2.70;;
18445;SDS011;9352;50.888;4.466;2022-07-29T04:40:30;4.20;;;2.72;;
18445;SDS011;9352;50.888;4.466;2022-07-29T04:42:59;5.30;;;2.80;;
18445;SDS011;9352;50.888;4.466;2022-07-29T04:45:27;6.93;;;3.08;;
18445;SDS011;9352;50.888;4.466;2022-07-29T04:47:54;6.15;;;2.75;;
18445;SDS011;9352;50.888;4.466;2022-07-29T04:50:21;4.50;;;2.90;;
18445;SDS011;9352;50.888;4.466;2022-07-29T04:52:48;4.50;;;2.85;;
18445;SDS011;9352;50.888;4.466;2022-07-29T04:55:15;3.58;;;3.00;;
18445;SDS011;9352;50.888;4.466;2022-07-29T04:57:42;5.95;;;2.65;;
18445;SDS011;9352;50.888;4.466;2022-07-29T05:00:11;10.70;;;3.10;;
18445;SDS011;9352;50.888;4.466;2022-07-29T05:02:38;7.13;;;3.10;;
18445;SDS011;9352;50.888;4.466;2022-07-29T05:05:06;6.78;;;3.22;;
18445;SDS011;9352;50.888;4.466;2022-07-29T05:07:33;4.70;;;3.10;;
18445;SDS011;9352;50.888;4.466;2022-07-29T05:10:00;8.93;;;3.03;;
18445;SDS011;9352;50.888;4.466;2022-07-29T05:12:27;5.05;;;2.83;;
18445;SDS011;9352;50.888;4.466;2022-07-29T05:14:54;6.30;;;3.20;;
18445;SDS011;9352;50.888;4.466;2022-07-29T05:17:22;5.30;;;3.13;;
18445;SDS011;9352;50.888;4.466;2022-07-29T05:19:49;4.20;;;2.60;;
18445;SDS011;9352;50.888;4.466;2022-07-29T05:22:16;4.20;;;2.75;;
18445;SDS011;9352;50.888;4.466;2022-07-29T05:24:44;4.93;;;3.15;;
18445;SDS011;9352;50.888;4.466;2022-07-29T05:27:11;12.82;;;3.35;;
18445;SDS011;9352;50.888;4.466;2022-07-29T05:29:38;4.53;;;2.92;;
18445;SDS011;9352;50.888;4.466;2022-07-29T05:32:05;6.57;;;3.22;;
18445;SDS011;9352;50.888;4.466;2022-07-29T05:34:34;7.50;;;3.30;;
18445;SDS011;9352;50.888;4.466;2022-07-29T05:37:01;6.72;;;3.15;;
18445;SDS011;9352;50.888;4.466;2022-07-29T05:39:28;6.60;;;2.97;;
18445;SDS011;9352;50.888;4.466;2022-07-29T05:41:55;4.30;;;2.80;;
18445;SDS011;9352;50.888;4.466;2022-07-29T05:44:22;3.83;;;3.10;;
18445;SDS011;9352;50.888;4.466;2022-07-29T05:46:49;5.18;;;3.55;;
18445;SDS011;9352;50.888;4.466;2022-07-29T05:49:16;6.80;;;2.90;;
18445;SDS011;9352;50.888;4.466;2022-07-29T05:51:44;3.75;;;3.25;;
18445;SDS011;9352;50.888;4.466;2022-07-29T05:54:12;3.47;;;3.00;;
18445;SDS011;9352;50.888;4.466;2022-07-29T05:56:39;9.07;;;3.67;;
18445;SDS011;9352;50.888;4.466;2022-07-29T05:59:06;7.95;;;3.15;;
18445;SDS011;9352;50.888;4.466;2022-07-29T06:01:33;7.85;;;3.47;;
18445;SDS011;9352;50.888;4.466;2022-07-29T06:04:04;9.65;;;3.28;;
18445;SDS011;9352;50.888;4.466;2022-07-29T06:06:31;4.55;;;3.30;;
18445;SDS011;9352;50.888;4.466;2022-07-29T06:08:59;14.07;;;3.25;;
18445;SDS011;9352;50.888;4.466;2022-07-29T06:11:26;5.18;;;3.40;;
18445;SDS011;9352;50.888;4.466;2022-07-29T06:13:54;5.45;;;3.60;;
18445;SDS011;9352;50.888;4.466;2022-07-29T06:16:20;9.73;;;3.40;;
18445;SDS011;9352;50.888;4.466;2022-07-29T06:18:47;3.97;;;3.15;;
18445;SDS011;9352;50.888;4.466;2022-07-29T06:21:14;6.88;;;3.53;;
18445;SDS011;9352;50.888;4.466;2022-07-29T06:23:41;7.25;;;3.83;;
18445;SDS011;9352;50.888;4.466;2022-07-29T06:26:10;5.30;;;3.70;;
18445;SDS011;9352;50.888;4.466;2022-07-29T06:28:37;5.00;;;3.22;;
18445;SDS011;9352;50.888;4.466;2022-07-29T06:31:04;5.00;;;3.30;;
18445;SDS011;9352;50.888;4.466;2022-07-29T06:33:31;8.00;;;3.80;;
18445;SDS011;9352;50.888;4.466;2022-07-29T06:35:58;8.77;;;3.72;;
18445;SDS011;9352;50.888;4.466;2022-07-29T06:38:25;4.15;;;3.38;;
18445;SDS011;9352;50.888;4.466;2022-07-29T06:40:52;5.82;;;3.75;;
18445;SDS011;9352;50.888;4.466;2022-07-29T06:43:33;6.35;;;3.78;;
18445;SDS011;9352;50.888;4.466;2022-07-29T06:46:03;7.93;;;3.75;;
18445;SDS011;9352;50.888;4.466;2022-07-29T06:48:31;4.93;;;3.35;;
18445;SDS011;9352;50.888;4.466;2022-07-29T06:50:58;8.45;;;3.67;;
18445;SDS011;9352;50.888;4.466;2022-07-29T06:53:26;5.13;;;3.60;;
18445;SDS011;9352;50.888;4.466;2022-07-29T06:55:54;4.43;;;3.60;;
18445;SDS011;9352;50.888;4.466;2022-07-29T06:58:20;8.70;;;3.55;;
18445;SDS011;9352;50.888;4.466;2022-07-29T07:00:49;4.65;;;3.75;;
18445;SDS011;9352;50.888;4.466;2022-07-29T07:03:18;6.82;;;3.90;;
18445;SDS011;9352;50.888;4.466;2022-07-29T07:05:45;4.60;;;3.92;;
18445;SDS011;9352;50.888;4.466;2022-07-29T07:08:12;9.52;;;4.90;;
18445;SDS011;9352;50.888;4.466;2022-07-29T07:10:41;5.93;;;3.75;;
18445;SDS011;9352;50.888;4.466;2022-07-29T07:13:08;4.22;;;3.83;;
18445;SDS011;9352;50.888;4.466;2022-07-29T07:15:35;6.30;;;3.50;;
18445;SDS011;9352;50.888;4.466;2022-07-29T07:18:04;8.10;;;3.28;;
18445;SDS011;9352;50.888;4.466;2022-07-29T07:20:32;10.13;;;3.40;;
18445;SDS011;9352;50.888;4.466;2022-07-29T07:22:59;8.52;;;3.72;;
18445;SDS011;9352;50.888;4.466;2022-07-29T07:25:26;4.70;;;3.70;;
18445;SDS011;9352;50.888;4.466;2022-07-29T07:27:53;11.05;;;3.80;;
18445;SDS011;9352;50.888;4.466;2022-07-29T07:30:19;5.97;;;3.67;;
18445;SDS011;9352;50.888;4.466;2022-07-29T07:32:46;4.47;;;3.55;;
18445;SDS011;9352;50.888;4.466;2022-07-29T07:35:15;7.15;;;3.45;;
18445;SDS011;9352;50.888;4.466;2022-07-29T07:37:42;5.15;;;3.50;;
18445;SDS011;9352;50.888;4.466;2022-07-29T07:40:10;5.53;;;3.60;;
18445;SDS011;9352;50.888;4.466;2022-07-29T07:42:38;4.55;;;3.60;;
18445;SDS011;9352;50.888;4.466;2022-07-29T07:45:05;6.13;;;3.42;;
18445;SDS011;9352;50.888;4.466;2022-07-29T07:47:34;9.82;;;3.40;;
18445;SDS011;9352;50.888;4.466;2022-07-29T07:50:01;5.88;;;3.55;;
18445;SDS011;9352;50.888;4.466;2022-07-29T07:52:30;9.45;;;3.90;;
18445;SDS011;9352;50.888;4.466;2022-07-29T07:54:57;4.50;;;3.60;;
18445;SDS011;9352;50.888;4.466;2022-07-29T07:57:24;8.82;;;3.80;;
18445;SDS011;9352;50.888;4.466;2022-07-29T07:59:50;5.43;;;3.60;;
18445;SDS011;9352;50.888;4.466;2022-07-29T08:02:17;5.30;;;3.17;;
18445;SDS011;9352;50.888;4.466;2022-07-29T08:04:44;6.00;;;3.45;;
18445;SDS011;9352;50.888;4.466;2022-07-29T08:07:11;5.22;;;3.75;;
18445;SDS011;9352;50.888;4.466;2022-07-29T08:09:41;8.00;;;3.60;;
18445;SDS011;9352;50.888;4.466;2022-07-29T08:12:08;8.90;;;3.92;;
18445;SDS011;9352;50.888;4.466;2022-07-29T08:14:34;9.55;;;3.70;;
18445;SDS011;9352;50.888;4.466;2022-07-29T08:17:02;7.38;;;3.80;;
18445;SDS011;9352;50.888;4.466;2022-07-29T08:19:29;7.20;;;3.70;;
18445;SDS011;9352;50.888;4.466;2022-07-29T08:21:55;11.35;;;4.68;;
18445;SDS011;9352;50.888;4.466;2022-07-29T08:24:22;11.32;;;3.78;;
18445;SDS011;9352;50.888;4.466;2022-07-29T08:27:08;11.77;;;3.83;;
18445;SDS011;9352;50.888;4.466;2022-07-29T08:29:36;12.88;;;3.97;;
18445;SDS011;9352;50.888;4.466;2022-07-29T08:32:03;15.43;;;4.65;;
18445;SDS011;9352;50.888;4.466;2022-07-29T08:34:30;16.02;;;3.85;;
18445;SDS011;9352;50.888;4.466;2022-07-29T08:36:58;19.50;;;3.70;;
18445;SDS011;9352;50.888;4.466;2022-07-29T08:39:25;14.45;;;4.43;;
18445;SDS011;9352;50.888;4.466;2022-07-29T08:41:52;20.65;;;4.35;;
18445;SDS011;9352;50.888;4.466;2022-07-29T08:44:21;12.45;;;5.05;;
18445;SDS011;9352;50.888;4.466;2022-07-29T08:46:48;15.82;;;5.63;;
18445;SDS011;9352;50.888;4.466;2022-07-29T08:49:16;10.25;;;4.43;;
18445;SDS011;9352;50.888;4.466;2022-07-29T08:51:43;8.23;;;5.10;;
18445;SDS011;9352;50.888;4.466;2022-07-29T08:54:10;11.55;;;3.67;;
18445;SDS011;9352;50.888;4.466;2022-07-29T08:56:42;6.72;;;3.60;;
18445;SDS011;9352;50.888;4.466;2022-07-29T08:59:12;11.30;;;3.60;;
18445;SDS011;9352;50.888;4.466;2022-07-29T09:01:41;15.05;;;3.05;;
18445;SDS011;9352;50.888;4.466;2022-07-29T09:04:10;9.95;;;3.83;;
18445;SDS011;9352;50.888;4.466;2022-07-29T09:06:41;15.30;;;2.88;;
18445;SDS011;9352;50.888;4.466;2022-07-29T09:09:10;14.07;;;3.03;;
18445;SDS011;9352;50.888;4.466;2022-07-29T09:11:39;13.35;;;3.53;;
18445;SDS011;9352;50.888;4.466;2022-07-29T09:14:06;5.65;;;2.90;;
18445;SDS011;9352;50.888;4.466;2022-07-29T09:19:23;5.93;;;2.25;;
18445;SDS011;9352;50.888;4.466;2022-07-29T09:21:51;3.83;;;2.20;;
18445;SDS011;9352;50.888;4.466;2022-07-29T09:27:12;6.57;;;2.20;;
18445;SDS011;9352;50.888;4.466;2022-07-29T09:29:46;4.57;;;2.00;;
18445;SDS011;9352;50.888;4.466;2022-07-29T09:32:22;5.03;;;2.20;;
18445;SDS011;9352;50.888;4.466;2022-07-29T09:34:49;7.63;;;2.03;;
18445;SDS011;9352;50.888;4.466;2022-07-29T09:37:25;5.50;;;2.08;;
18445;SDS011;9352;50.888;4.466;2022-07-29T09:39:53;2.80;;;1.90;;
18445;SDS011;9352;50.888;4.466;2022-07-29T09:42:27;6.78;;;2.08;;
18445;SDS011;9352;50.888;4.466;2022-07-29T09:44:57;7.18;;;2.05;;
18445;SDS011;9352;50.888;4.466;2022-07-29T09:47:27;6.00;;;2.03;;
18445;SDS011;9352;50.888;4.466;2022-07-29T09:50:07;3.30;;;2.13;;
18445;SDS011;9352;50.888;4.466;2022-07-29T09:52:41;4.93;;;1.92;;
18445;SDS011;9352;50.888;4.466;2022-07-29T09:55:11;6.93;;;1.88;;
18445;SDS011;9352;50.888;4.466;2022-07-29T09:57:39;4.57;;;2.00;;
18445;SDS011;9352;50.888;4.466;2022-07-29T10:00:07;3.08;;;2.20;;
18445;SDS011;9352;50.888;4.466;2022-07-29T10:02:37;3.53;;;2.17;;
18445;SDS011;9352;50.888;4.466;2022-07-29T10:05:06;6.50;;;2.15;;
18445;SDS011;9352;50.888;4.466;2022-07-29T10:07:43;5.68;;;1.98;;
18445;SDS011;9352;50.888;4.466;2022-07-29T10:10:10;9.15;;;2.38;;
18445;SDS011;9352;50.888;4.466;2022-07-29T10:12:48;7.93;;;1.90;;
18445;SDS011;9352;50.888;4.466;2022-07-29T10:15:16;6.38;;;2.03;;
18445;SDS011;9352;50.888;4.466;2022-07-29T10:17:45;3.58;;;2.08;;
18445;SDS011;9352;50.888;4.466;2022-07-29T10:20:13;5.95;;;2.30;;
18445;SDS011;9352;50.888;4.466;2022-07-29T10:22:41;3.08;;;2.08;;
18445;SDS011;9352;50.888;4.466;2022-07-29T10:25:09;3.47;;;1.90;;
18445;SDS011;9352;50.888;4.466;2022-07-29T10:27:36;6.55;;;2.17;;
18445;SDS011;9352;50.888;4.466;2022-07-29T10:30:04;3.60;;;2.30;;
18445;SDS011;9352;50.888;4.466;2022-07-29T10:32:37;5.28;;;2.38;;
18445;SDS011;9352;50.888;4.466;2022-07-29T10:35:29;8.10;;;2.40;;
18445;SDS011;9352;50.888;4.466;2022-07-29T10:38:33;6.00;;;2.58;;
18445;SDS011;9352;50.888;4.466;2022-07-29T10:41:16;3.25;;;2.35;;
18445;SDS011;9352;50.888;4.466;2022-07-29T10:43:53;4.68;;;2.90;;
18445;SDS011;9352;50.888;4.466;2022-07-29T10:46:21;6.40;;;2.42;;
18445;SDS011;9352;50.888;4.466;2022-07-29T10:49:05;7.15;;;2.70;;
18445;SDS011;9352;50.888;4.466;2022-07-29T10:54:38;8.63;;;2.25;;
18445;SDS011;9352;50.888;4.466;2022-07-29T10:57:13;5.15;;;2.63;;
18445;SDS011;9352;50.888;4.466;2022-07-29T10:59:45;4.10;;;2.50;;
18445;SDS011;9352;50.888;4.466;2022-07-29T11:05:11;5.55;;;2.80;;
18445;SDS011;9352;50.888;4.466;2022-07-29T11:07:39;3.97;;;2.30;;
18445;SDS011;9352;50.888;4.466;2022-07-29T11:14:00;6.70;;;2.40;;
18445;SDS011;9352;50.888;4.466;2022-07-29T11:16:31;4.70;;;2.17;;
18445;SDS011;9352;50.888;4.466;2022-07-29T11:19:28;5.80;;;2.30;;
18445;SDS011;9352;50.888;4.466;2022-07-29T11:21:57;4.60;;;2.42;;
18445;SDS011;9352;50.888;4.466;2022-07-29T11:24:25;4.18;;;2.20;;
18445;SDS011;9352;50.888;4.466;2022-07-29T11:27:15;7.10;;;2.28;;
18445;SDS011;9352;50.888;4.466;2022-07-29T11:29:48;3.90;;;2.30;;
18445;SDS011;9352;50.888;4.466;2022-07-29T11:32:17;2.78;;;2.00;;
18445;SDS011;9352;50.888;4.466;2022-07-29T11:34:45;5.63;;;2.50;;
18445;SDS011;9352;50.888;4.466;2022-07-29T11:37:22;6.07;;;2.05;;
18445;SDS011;9352;50.888;4.466;2022-07-29T11:42:50;7.03;;;2.65;;
18445;SDS011;9352;50.888;4.466;2022-07-29T11:45:21;7.68;;;2.67;;
18445;SDS011;9352;50.888;4.466;2022-07-29T11:47:53;4.80;;;2.40;;
18445;SDS011;9352;50.888;4.466;2022-07-29T11:50:27;6.25;;;3.00;;
18445;SDS011;9352;50.888;4.466;2022-07-29T11:53:02;4.63;;;2.30;;
18445;SDS011;9352;50.888;4.466;2022-07-29T11:55:37;2.88;;;2.17;;
18445;SDS011;9352;50.888;4.466;2022-07-29T11:58:05;2.92;;;2.10;;
18445;SDS011;9352;50.888;4.466;2022-07-29T12:00:33;7.18;;;2.40;;
18445;SDS011;9352;50.888;4.466;2022-07-29T12:03:03;6.10;;;2.40;;
18445;SDS011;9352;50.888;4.466;2022-07-29T12:05:34;5.50;;;2.20;;
18445;SDS011;9352;50.888;4.466;2022-07-29T12:08:11;5.25;;;2.05;;
18445;SDS011;9352;50.888;4.466;2022-07-29T12:10:40;7.05;;;2.65;;
18445;SDS011;9352;50.888;4.466;2022-07-29T12:13:07;3.50;;;2.20;;
18445;SDS011;9352;50.888;4.466;2022-07-29T12:15:35;6.32;;;2.28;;
18445;SDS011;9352;50.888;4.466;2022-07-29T12:18:09;7.18;;;2.47;;
18445;SDS011;9352;50.888;4.466;2022-07-29T12:20:40;7.65;;;2.55;;
18445;SDS011;9352;50.888;4.466;2022-07-29T12:23:08;4.13;;;2.55;;
18445;SDS011;9352;50.888;4.466;2022-07-29T12:25:38;11.13;;;2.50;;
18445;SDS011;9352;50.888;4.466;2022-07-29T12:28:07;4.85;;;2.42;;
18445;SDS011;9352;50.888;4.466;2022-07-29T12:30:36;4.28;;;2.38;;
18445;SDS011;9352;50.888;4.466;2022-07-29T12:33:12;5.78;;;2.25;;
18445;SDS011;9352;50.888;4.466;2022-07-29T12:35:41;4.30;;;2.65;;
18445;SDS011;9352;50.888;4.466;2022-07-29T12:38:10;8.43;;;2.88;;
18445;SDS011;9352;50.888;4.466;2022-07-29T12:40:39;7.80;;;3.00;;
18445;SDS011;9352;50.888;4.466;2022-07-29T12:43:07;3.72;;;2.50;;
18445;SDS011;9352;50.888;4.466;2022-07-29T12:45:35;5.55;;;2.40;;
18445;SDS011;9352;50.888;4.466;2022-07-29T12:48:02;3.83;;;2.63;;
18445;SDS011;9352;50.888;4.466;2022-07-29T12:50:30;11.13;;;3.67;;
18445;SDS011;9352;50.888;4.466;2022-07-29T12:53:07;7.20;;;2.92;;
18445;SDS011;9352;50.888;4.466;2022-07-29T12:55:42;5.55;;;3.05;;
18445;SDS011;9352;50.888;4.466;2022-07-29T12:58:13;5.65;;;2.70;;
18445;SDS011;9352;50.888;4.466;2022-07-29T13:00:58;4.53;;;3.47;;
18445;SDS011;9352;50.888;4.466;2022-07-29T13:03:41;7.10;;;3.30;;
18445;SDS011;9352;50.888;4.466;2022-07-29T13:06:28;9.05;;;3.63;;
18445;SDS011;9352;50.888;4.466;2022-07-29T13:09:06;8.35;;;3.10;;
18445;SDS011;9352;50.888;4.466;2022-07-29T13:11:37;3.97;;;2.78;;
18445;SDS011;9352;50.888;4.466;2022-07-29T13:14:06;8.25;;;3.38;;
18445;SDS011;9352;50.888;4.466;2022-07-29T13:16:34;6.70;;;2.92;;
18445;SDS011;9352;50.888;4.466;2022-07-29T13:19:07;7.18;;;2.90;;
18445;SDS011;9352;50.888;4.466;2022-07-29T13:21:37;6.05;;;2.53;;
18445;SDS011;9352;50.888;4.466;2022-07-29T13:24:05;7.28;;;2.20;;
18445;SDS011;9352;50.888;4.466;2022-07-29T13:26:33;5.07;;;2.70;;
18445;SDS011;9352;50.888;4.466;2022-07-29T13:29:01;9.68;;;2.80;;
18445;SDS011;9352;50.888;4.466;2022-07-29T13:31:28;6.95;;;2.65;;
18445;SDS011;9352;50.888;4.466;2022-07-29T13:33:55;7.35;;;2.60;;
18445;SDS011;9352;50.888;4.466;2022-07-29T13:36:22;7.53;;;3.53;;
18445;SDS011;9352;50.888;4.466;2022-07-29T13:38:49;7.80;;;3.20;;
18445;SDS011;9352;50.888;4.466;2022-07-29T13:41:16;9.57;;;3.03;;
18445;SDS011;9352;50.888;4.466;2022-07-29T13:43:43;5.55;;;2.70;;
18445;SDS011;9352;50.888;4.466;2022-07-29T13:46:11;4.28;;;2.60;;
18445;SDS011;9352;50.888;4.466;2022-07-29T13:48:38;8.07;;;2.30;;
18445;SDS011;9352;50.888;4.466;2022-07-29T13:51:05;11.55;;;2.60;;
18445;SDS011;9352;50.888;4.466;2022-07-29T13:53:33;8.07;;;2.20;;
18445;SDS011;9352;50.888;4.466;2022-07-29T13:56:00;6.38;;;2.20;;
18445;SDS011;9352;50.888;4.466;2022-07-29T13:58:27;3.78;;;2.22;;
18445;SDS011;9352;50.888;4.466;2022-07-29T14:00:54;7.95;;;2.30;;
18445;SDS011;9352;50.888;4.466;2022-07-29T14:03:23;5.63;;;2.50;;
18445;SDS011;9352;50.888;4.466;2022-07-29T14:05:50;6.95;;;2.50;;
18445;SDS011;9352;50.888;4.466;2022-07-29T14:08:17;3.33;;;2.10;;
18445;SDS011;9352;50.888;4.466;2022-07-29T14:10:44;5.88;;;2.22;;
18445;SDS011;9352;50.888;4.466;2022-07-29T14:13:11;6.20;;;2.17;;
18445;SDS011;9352;50.888;4.466;2022-07-29T14:15:38;5.97;;;2.38;;
18445;SDS011;9352;50.888;4.466;2022-07-29T14:18:04;9.80;;;2.63;;
18445;SDS011;9352;50.888;4.466;2022-07-29T14:20:33;5.50;;;2.35;;
18445;SDS011;9352;50.888;4.466;2022-07-29T14:22:59;8.30;;;2.10;;
18445;SDS011;9352;50.888;4.466;2022-07-29T14:25:27;3.38;;;2.22;;
18445;SDS011;9352;50.888;4.466;2022-07-29T14:27:54;11.18;;;2.55;;
18445;SDS011;9352;50.888;4.466;2022-07-29T14:30:21;8.18;;;2.05;;
18445;SDS011;9352;50.888;4.466;2022-07-29T14:32:48;4.65;;;2.00;;
18445;SDS011;9352;50.888;4.466;2022-07-29T14:35:15;8.98;;;2.88;;
18445;SDS011;9352;50.888;4.466;2022-07-29T14:37:43;6.05;;;1.92;;
18445;SDS011;9352;50.888;4.466;2022-07-29T14:40:10;3.08;;;2.10;;
18445;SDS011;9352;50.888;4.466;2022-07-29T14:42:37;4.47;;;2.03;;
18445;SDS011;9352;50.888;4.466;2022-07-29T14:45:05;9.23;;;2.10;;
18445;SDS011;9352;50.888;4.466;2022-07-29T14:47:33;5.43;;;2.20;;
18445;SDS011;9352;50.888;4.466;2022-07-29T14:50:00;4.07;;;2.05;;
18445;SDS011;9352;50.888;4.466;2022-07-29T14:52:27;2.20;;;2.00;;
18445;SDS011;9352;50.888;4.466;2022-07-29T14:54:55;3.10;;;2.40;;
18445;SDS011;9352;50.888;4.466;2022-07-29T14:57:22;4.47;;;1.92;;
18445;SDS011;9352;50.888;4.466;2022-07-29T14:59:49;5.00;;;1.90;;
18445;SDS011;9352;50.888;4.466;2022-07-29T15:02:16;4.10;;;2.35;;
18445;SDS011;9352;50.888;4.466;2022-07-29T15:04:43;5.47;;;1.90;;
18445;SDS011;9352;50.888;4.466;2022-07-29T15:07:11;6.82;;;2.42;;
18445;SDS011;9352;50.888;4.466;2022-07-29T15:09:38;2.00;;;1.90;;
18445;SDS011;9352;50.888;4.466;2022-07-29T15:12:06;4.43;;;2.50;;
18445;SDS011;9352;50.888;4.466;2022-07-29T15:14:35;5.13;;;2.40;;
18445;SDS011;9352;50.888;4.466;2022-07-29T15:17:02;5.00;;;2.05;;
18445;SDS011;9352;50.888;4.466;2022-07-29T15:19:29;3.50;;;1.98;;
18445;SDS011;9352;50.888;4.466;2022-07-29T15:21:56;5.70;;;1.85;;
18445;SDS011;9352;50.888;4.466;2022-07-29T15:24:23;10.05;;;2.40;;
18445;SDS011;9352;50.888;4.466;2022-07-29T15:26:49;8.50;;;2.22;;
18445;SDS011;9352;50.888;4.466;2022-07-29T15:29:18;5.93;;;2.03;;
18445;SDS011;9352;50.888;4.466;2022-07-29T15:31:45;4.38;;;1.90;;
18445;SDS011;9352;50.888;4.466;2022-07-29T15:34:11;8.95;;;2.10;;
18445;SDS011;9352;50.888;4.466;2022-07-29T15:36:38;6.18;;;1.92;;